Forside
METAR-TAF:

METAR-TAF

Lufthavne :

Madeira Lufthavn

Funchal, Madeira, Portugal

Breddekreds: 32-41-52N, længdekreds: 016-46-28W, højde: 59 m

Aktuelle vejr

Denne rapport blev lavet for 11 minutter siden, kl. 13:00 UTC
Vind 6 kt fra syd, varierende mellem sydøst og sydsydvest
Temperatur 22°C
Fugtighed 69%
Tryk 1020 hPa
Sigt 10 km eller mere
Nogle få skyer i en højde af 1500 ft

METAR: LPMA 221300Z 17006KT 130V210 9999 FEW015 22/16 Q1020

Tid: 14:11 (13:11 UTC)

Vejrudsigter

Denne rapport blev lavet for 2 timer og 11 minutter siden, kl. 11:00 UTC
Foreløbig gælder fra 22 på 12 UTC til 23 på 12 UTC
Vind 8 kt fra sydsydvest
Sigt 10 km eller mere
Spredte skyer i en højde af 1500 ft
ændring
fra 22 på 17 UTC til 22 på 20 UTC
Vind 5 kt fra varierende retninger
Sandsynlighed 30% :
Midlertidig
fra 22 på 22 UTC til 23 på 03 UTC
Sigt: 6000 m
Brudte skyer i en højde af 1500 ft
let regn

TAF: LPMA 221100Z 2212/2312 21008KT 9999 SCT015 BECMG 2217/2220 VRB05KT PROB30 TEMPO 2222/2303 6000 -RA BKN015

Vejrobservationer og prognoser fra mere end 4000 lufthavne (METAR og TAF).

De gule og røde prikker repræsenterer de meteorologiske stationer.

Flyt musen over at se navnet på stationen.

Så klik over at se vejr observationer og prognoser.

At skifte det kort: Klik på de grønne knapper med et sort kors for at zoome ind; på den grønne knap med en bindestreg for at zoome ud; eller på de grønne pile for tilstødende kort.


METAR-TAF: